Terminal Aerodrome Forecast
Issued by NWS Norman, OK

Home | Current Version | Previous Version | Text Only | Print | Product List | Glossary On
Versions: 1 2 3 4 5 6 7 8 9 10 11 12 13 14 15 16 17 18 19 20 21 22 23 24 25 26 27 28 29
000
FTUS44 KOUN 291737
TAFSPS
TAF
KSPS 291737Z 2918/3018 15015KT P6SM BKN015
     FM292100 18015G24KT P6SM SCT040 SCT250
      TEMPO 2921/2923 5SM TSRA BKN040CB OVC250
     FM292300 34012G16KT P6SM SCT250=

USA.gov is the U.S. government's official web portal to all federal, state and local government web resources and services.